Albert J Ellis Airport
KOAJ : now visible

Airfield :











YOU CAN JOIN US ON...

 
LOGIN :

Register | Disclaimer

   EN    FR    IT 

 









Legend :    VFR   Marginal VFR   IFR   Intensive IFR   Very Intensive IFR
Visi :
Ceiling :
>= 8 km
>= 3000ft
5 to 8 km
1000 to 3000 ft
1500m to 5 km
500 to 1000 ft
800 to 1500m
200 to 500 ft
< 800m
< 200 ft
Symbols :   Thunderstorms  Fog  Heavy snow  Heavy precipitations  Wind > 20 kt






- Airport Elevation : 94 ft


KOAJ - Albert J Ellis

CURRENT METAR :
  • 030956Z AUTO 22011KT 10SM OVC110 21/17 A3003 RMK AO2 SLP170 T02060167

EXPIRED METARs :
  • 030856Z AUTO 23009KT 10SM CLR 21/17 A3002 RMK AO2 SLP168 T02060167 56006
  • 030756Z AUTO 23012KT 10SM CLR 21/17 A3002 RMK AO2 SLP168 T02110167
  • 030656Z AUTO 22010KT 10SM CLR 21/17 A3002 RMK AO2 SLP168 T02110172

TAF KOAJ
Valid from the 03 at 06:00 until the 04 at 06:00 UTC


030538Z 0306/0406 22008G14KT P6SM FEW250 AMD LTD TO CLD VIS AND WIND
KZDC FIR / North America



MET'MAP, your aeronautical weather chart ! - Copyright ORBIFLY December 2007 - Disclaimer

ORBIFLY MET'MAP TEAM :

Programming & Development : Alexandra Zaïnal
Concept & original design : Baudouin d'Aumeries
Assistance for programming : Marc-Olivier Méhu
Technical & hardware support : Manuel Goepfert

Contact : metmap@orbifly.com




SOURCES & CREDITS :

   NOAA       Earth
Advisory